sensor_id;sensor_type;location;lat;lon;timestamp;temperature;humidity
25140;DHT22;39015;48.106;-1.682;2023-04-03T05:49:43;13.80;68.20
25140;DHT22;39015;48.106;-1.682;2023-04-03T05:52:12;13.70;68.20
25140;DHT22;39015;48.106;-1.682;2023-04-03T05:54:43;13.70;68.20
25140;DHT22;39015;48.106;-1.682;2023-04-03T05:57:12;13.70;68.30
25140;DHT22;39015;48.106;-1.682;2023-04-03T05:59:39;13.70;68.20
25140;DHT22;39015;48.106;-1.682;2023-04-03T06:02:06;13.70;68.30
25140;DHT22;39015;48.106;-1.682;2023-04-03T06:04:35;13.70;68.30
25140;DHT22;39015;48.106;-1.682;2023-04-03T06:07:07;13.70;68.20
25140;DHT22;39015;48.106;-1.682;2023-04-03T06:09:36;13.70;68.10
25140;DHT22;39015;48.106;-1.682;2023-04-03T06:12:03;13.70;68.10
25140;DHT22;39015;48.106;-1.682;2023-04-03T06:14:30;13.70;68.10
25140;DHT22;39015;48.106;-1.682;2023-04-03T06:16:57;13.70;68.20
25140;DHT22;39015;48.106;-1.682;2023-04-03T06:19:24;13.70;68.10
25140;DHT22;39015;48.106;-1.682;2023-04-03T06:21:51;13.70;68.20
25140;DHT22;39015;48.106;-1.682;2023-04-03T06:24:20;13.70;68.10
25140;DHT22;39015;48.106;-1.682;2023-04-03T06:26:49;13.70;68.10
25140;DHT22;39015;48.106;-1.682;2023-04-03T06:29:16;13.80;68.10
25140;DHT22;39015;48.106;-1.682;2023-04-03T06:31:43;13.70;68.00
25140;DHT22;39015;48.106;-1.682;2023-04-03T06:34:12;13.70;68.00
25140;DHT22;39015;48.106;-1.682;2023-04-03T06:36:43;13.70;68.10
25140;DHT22;39015;48.106;-1.682;2023-04-03T06:39:11;13.70;68.10
25140;DHT22;39015;48.106;-1.682;2023-04-03T06:41:41;13.70;68.30
25140;DHT22;39015;48.106;-1.682;2023-04-03T06:44:08;13.70;68.30
25140;DHT22;39015;48.106;-1.682;2023-04-03T06:46:36;13.70;68.40
25140;DHT22;39015;48.106;-1.682;2023-04-03T06:49:03;13.70;68.30
25140;DHT22;39015;48.106;-1.682;2023-04-03T06:51:32;13.70;68.30
25140;DHT22;39015;48.106;-1.682;2023-04-03T06:54:00;13.70;68.30
25140;DHT22;39015;48.106;-1.682;2023-04-03T06:56:27;13.70;68.30
25140;DHT22;39015;48.106;-1.682;2023-04-03T06:58:55;13.60;68.20
25140;DHT22;39015;48.106;-1.682;2023-04-03T07:01:23;13.60;68.40
25140;DHT22;39015;48.106;-1.682;2023-04-03T07:03:50;13.60;68.20
25140;DHT22;39015;48.106;-1.682;2023-04-03T07:06:17;13.60;68.20
25140;DHT22;39015;48.106;-1.682;2023-04-03T07:08:44;13.60;68.10
25140;DHT22;39015;48.106;-1.682;2023-04-03T07:11:11;13.60;68.20
25140;DHT22;39015;48.106;-1.682;2023-04-03T07:13:38;13.60;68.20
25140;DHT22;39015;48.106;-1.682;2023-04-03T07:16:07;13.60;68.10
25140;DHT22;39015;48.106;-1.682;2023-04-03T07:18:34;13.60;68.10
25140;DHT22;39015;48.106;-1.682;2023-04-03T07:21:01;13.60;68.10
25140;DHT22;39015;48.106;-1.682;2023-04-03T07:23:28;13.60;68.20
25140;DHT22;39015;48.106;-1.682;2023-04-03T07:25:55;13.60;68.20
25140;DHT22;39015;48.106;-1.682;2023-04-03T07:28:23;13.60;68.20
25140;DHT22;39015;48.106;-1.682;2023-04-03T07:30:51;13.60;68.00
25140;DHT22;39015;48.106;-1.682;2023-04-03T07:33:28;13.50;67.10
25140;DHT22;39015;48.106;-1.682;2023-04-03T07:35:55;13.40;66.70
25140;DHT22;39015;48.106;-1.682;2023-04-03T07:38:23;13.30;67.30
25140;DHT22;39015;48.106;-1.682;2023-04-03T07:40:50;13.30;67.70
25140;DHT22;39015;48.106;-1.682;2023-04-03T07:43:19;13.30;67.60
25140;DHT22;39015;48.106;-1.682;2023-04-03T07:45:47;13.30;67.70
25140;DHT22;39015;48.106;-1.682;2023-04-03T07:48:16;13.30;67.60
25140;DHT22;39015;48.106;-1.682;2023-04-03T07:50:45;13.30;67.80
25140;DHT22;39015;48.106;-1.682;2023-04-03T07:53:12;13.30;67.80
25140;DHT22;39015;48.106;-1.682;2023-04-03T07:55:39;13.30;67.80
25140;DHT22;39015;48.106;-1.682;2023-04-03T07:58:10;13.30;67.70
25140;DHT22;39015;48.106;-1.682;2023-04-03T08:00:38;13.30;67.80
25140;DHT22;39015;48.106;-1.682;2023-04-03T08:03:05;13.30;67.70
25140;DHT22;39015;48.106;-1.682;2023-04-03T08:05:36;13.30;67.70
25140;DHT22;39015;48.106;-1.682;2023-04-03T08:08:09;13.30;67.80
25140;DHT22;39015;48.106;-1.682;2023-04-03T08:10:38;13.30;67.90
25140;DHT22;39015;48.106;-1.682;2023-04-03T08:13:05;13.30;67.90
25140;DHT22;39015;48.106;-1.682;2023-04-03T08:15:34;13.30;67.90
25140;DHT22;39015;48.106;-1.682;2023-04-03T08:18:03;13.30;68.10
25140;DHT22;39015;48.106;-1.682;2023-04-03T08:20:30;13.30;68.00
25140;DHT22;39015;48.106;-1.682;2023-04-03T08:22:58;13.30;68.10
25140;DHT22;39015;48.106;-1.682;2023-04-03T08:25:26;13.30;68.20
25140;DHT22;39015;48.106;-1.682;2023-04-03T08:27:58;13.30;68.20
25140;DHT22;39015;48.106;-1.682;2023-04-03T08:30:32;13.30;68.20
25140;DHT22;39015;48.106;-1.682;2023-04-03T08:33:01;13.30;68.30
25140;DHT22;39015;48.106;-1.682;2023-04-03T08:35:31;13.30;68.20
25140;DHT22;39015;48.106;-1.682;2023-04-03T08:38:04;13.30;68.10
25140;DHT22;39015;48.106;-1.682;2023-04-03T08:40:40;13.30;69.10
25140;DHT22;39015;48.106;-1.682;2023-04-03T08:43:18;13.30;68.30
25140;DHT22;39015;48.106;-1.682;2023-04-03T08:45:51;13.30;68.30
25140;DHT22;39015;48.106;-1.682;2023-04-03T08:48:19;13.30;68.20
25140;DHT22;39015;48.106;-1.682;2023-04-03T08:50:48;13.20;68.30
25140;DHT22;39015;48.106;-1.682;2023-04-03T08:53:17;13.20;68.50
25140;DHT22;39015;48.106;-1.682;2023-04-03T08:55:47;13.30;68.60
25140;DHT22;39015;48.106;-1.682;2023-04-03T08:58:15;13.30;68.50
25140;DHT22;39015;48.106;-1.682;2023-04-03T09:00:44;13.30;68.60
25140;DHT22;39015;48.106;-1.682;2023-04-03T09:03:12;13.20;68.50
25140;DHT22;39015;48.106;-1.682;2023-04-03T09:05:40;13.20;68.70
25140;DHT22;39015;48.106;-1.682;2023-04-03T09:08:12;13.20;68.70
25140;DHT22;39015;48.106;-1.682;2023-04-03T09:10:41;13.20;68.80
25140;DHT22;39015;48.106;-1.682;2023-04-03T09:13:10;13.20;68.70
25140;DHT22;39015;48.106;-1.682;2023-04-03T09:15:39;13.20;68.80
25140;DHT22;39015;48.106;-1.682;2023-04-03T09:18:10;13.20;68.80
25140;DHT22;39015;48.106;-1.682;2023-04-03T09:20:42;13.20;68.80
25140;DHT22;39015;48.106;-1.682;2023-04-03T09:23:13;13.10;68.80
25140;DHT22;39015;48.106;-1.682;2023-04-03T09:25:43;13.20;68.90
25140;DHT22;39015;48.106;-1.682;2023-04-03T09:28:17;13.10;68.80
25140;DHT22;39015;48.106;-1.682;2023-04-03T09:30:46;13.20;69.00
25140;DHT22;39015;48.106;-1.682;2023-04-03T09:33:17;13.10;68.80
25140;DHT22;39015;48.106;-1.682;2023-04-03T09:35:46;13.10;68.80
25140;DHT22;39015;48.106;-1.682;2023-04-03T09:38:17;13.10;68.80
25140;DHT22;39015;48.106;-1.682;2023-04-03T09:40:49;13.10;68.80
25140;DHT22;39015;48.106;-1.682;2023-04-03T09:43:23;13.10;68.60
25140;DHT22;39015;48.106;-1.682;2023-04-03T09:45:53;13.10;68.70
25140;DHT22;39015;48.106;-1.682;2023-04-03T09:48:20;13.10;68.70
25140;DHT22;39015;48.106;-1.682;2023-04-03T09:50:54;13.10;68.60
25140;DHT22;39015;48.106;-1.682;2023-04-03T09:53:31;13.10;68.70
25140;DHT22;39015;48.106;-1.682;2023-04-03T09:55:58;13.10;68.70
25140;DHT22;39015;48.106;-1.682;2023-04-03T09:58:28;13.10;68.60
25140;DHT22;39015;48.106;-1.682;2023-04-03T10:01:02;13.10;68.70
25140;DHT22;39015;48.106;-1.682;2023-04-03T10:03:29;13.10;68.50
25140;DHT22;39015;48.106;-1.682;2023-04-03T10:05:57;13.10;68.60
25140;DHT22;39015;48.106;-1.682;2023-04-03T10:08:25;13.10;68.50
25140;DHT22;39015;48.106;-1.682;2023-04-03T10:11:06;13.10;68.60
25140;DHT22;39015;48.106;-1.682;2023-04-03T10:13:36;13.10;68.70
25140;DHT22;39015;48.106;-1.682;2023-04-03T10:16:16;13.10;68.50
25140;DHT22;39015;48.106;-1.682;2023-04-03T10:18:44;13.10;68.40
25140;DHT22;39015;48.106;-1.682;2023-04-03T10:21:13;13.10;68.50
25140;DHT22;39015;48.106;-1.682;2023-04-03T10:23:42;13.10;68.50
25140;DHT22;39015;48.106;-1.682;2023-04-03T10:26:12;13.10;68.60
25140;DHT22;39015;48.106;-1.682;2023-04-03T10:28:45;13.20;68.70
25140;DHT22;39015;48.106;-1.682;2023-04-03T10:31:15;13.10;68.70
25140;DHT22;39015;48.106;-1.682;2023-04-03T10:33:49;13.10;68.80
25140;DHT22;39015;48.106;-1.682;2023-04-03T10:36:19;13.20;68.80
25140;DHT22;39015;48.106;-1.682;2023-04-03T10:38:51;13.20;68.90
25140;DHT22;39015;48.106;-1.682;2023-04-03T10:41:22;13.30;68.80
25140;DHT22;39015;48.106;-1.682;2023-04-03T10:43:55;13.30;68.50
25140;DHT22;39015;48.106;-1.682;2023-04-03T10:46:26;13.30;68.50
25140;DHT22;39015;48.106;-1.682;2023-04-03T10:48:59;13.30;68.60
25140;DHT22;39015;48.106;-1.682;2023-04-03T10:51:29;13.40;68.30
25140;DHT22;39015;48.106;-1.682;2023-04-03T10:54:00;13.40;68.20
25140;DHT22;39015;48.106;-1.682;2023-04-03T10:56:35;13.50;69.00
25140;DHT22;39015;48.106;-1.682;2023-04-03T10:59:08;13.50;67.90
25140;DHT22;39015;48.106;-1.682;2023-04-03T11:01:38;13.60;67.90
25140;DHT22;39015;48.106;-1.682;2023-04-03T11:04:06;13.60;68.80
25140;DHT22;39015;48.106;-1.682;2023-04-03T11:06:35;13.60;68.00
25140;DHT22;39015;48.106;-1.682;2023-04-03T11:09:05;13.60;67.80
25140;DHT22;39015;48.106;-1.682;2023-04-03T11:11:34;13.60;67.80
25140;DHT22;39015;48.106;-1.682;2023-04-03T11:14:03;13.70;67.80
25140;DHT22;39015;48.106;-1.682;2023-04-03T11:16:33;13.70;67.90
25140;DHT22;39015;48.106;-1.682;2023-04-03T11:19:03;13.70;67.90
25140;DHT22;39015;48.106;-1.682;2023-04-03T11:21:32;13.80;68.00
25140;DHT22;39015;48.106;-1.682;2023-04-03T11:24:00;13.80;68.80
25140;DHT22;39015;48.106;-1.682;2023-04-03T11:26:29;13.80;67.90
25140;DHT22;39015;48.106;-1.682;2023-04-03T11:28:59;13.90;67.80
25140;DHT22;39015;48.106;-1.682;2023-04-03T11:31:31;13.90;67.70
25140;DHT22;39015;48.106;-1.682;2023-04-03T11:34:05;13.90;67.80
25140;DHT22;39015;48.106;-1.682;2023-04-03T11:36:37;13.90;67.70
25140;DHT22;39015;48.106;-1.682;2023-04-03T11:39:07;13.90;67.60
25140;DHT22;39015;48.106;-1.682;2023-04-03T11:41:36;14.00;67.80
25140;DHT22;39015;48.106;-1.682;2023-04-03T11:44:04;14.00;67.70
25140;DHT22;39015;48.106;-1.682;2023-04-03T11:46:54;14.00;67.80
25140;DHT22;39015;48.106;-1.682;2023-04-03T11:52:10;14.00;67.80
25140;DHT22;39015;48.106;-1.682;2023-04-03T11:54:44;14.00;67.90
25140;DHT22;39015;48.106;-1.682;2023-04-03T11:59:57;14.10;67.90
25140;DHT22;39015;48.106;-1.682;2023-04-03T12:02:36;14.10;67.90
25140;DHT22;39015;48.106;-1.682;2023-04-03T12:05:26;14.20;68.10
25140;DHT22;39015;48.106;-1.682;2023-04-03T12:10:36;14.20;67.90
25140;DHT22;39015;48.106;-1.682;2023-04-03T12:13:12;14.20;67.90
25140;DHT22;39015;48.106;-1.682;2023-04-03T12:15:50;14.20;67.90
25140;DHT22;39015;48.106;-1.682;2023-04-03T12:21:15;14.20;68.00
25140;DHT22;39015;48.106;-1.682;2023-04-03T12:24:00;14.20;68.00
25140;DHT22;39015;48.106;-1.682;2023-04-03T12:26:30;14.30;68.00
25140;DHT22;39015;48.106;-1.682;2023-04-03T12:28:58;14.30;68.00
25140;DHT22;39015;48.106;-1.682;2023-04-03T12:31:25;14.30;68.10
25140;DHT22;39015;48.106;-1.682;2023-04-03T12:34:05;14.40;68.10
25140;DHT22;39015;48.106;-1.682;2023-04-03T12:36:39;14.40;68.10
25140;DHT22;39015;48.106;-1.682;2023-04-03T12:41:56;14.40;68.20
25140;DHT22;39015;48.106;-1.682;2023-04-03T12:44:35;14.40;68.10
25140;DHT22;39015;48.106;-1.682;2023-04-03T12:47:08;14.50;68.20
25140;DHT22;39015;48.106;-1.682;2023-04-03T12:49:43;14.50;68.20
25140;DHT22;39015;48.106;-1.682;2023-04-03T12:52:16;14.50;68.10
25140;DHT22;39015;48.106;-1.682;2023-04-03T12:54:44;14.50;68.10
25140;DHT22;39015;48.106;-1.682;2023-04-03T12:57:16;14.50;68.20
25140;DHT22;39015;48.106;-1.682;2023-04-03T12:59:43;14.50;68.20
25140;DHT22;39015;48.106;-1.682;2023-04-03T13:02:22;14.60;68.30
25140;DHT22;39015;48.106;-1.682;2023-04-03T13:04:53;14.60;68.20
25140;DHT22;39015;48.106;-1.682;2023-04-03T13:07:24;14.60;68.30
25140;DHT22;39015;48.106;-1.682;2023-04-03T13:10:01;14.60;68.20
25140;DHT22;39015;48.106;-1.682;2023-04-03T13:12:30;14.60;68.20
25140;DHT22;39015;48.106;-1.682;2023-04-03T13:14:58;14.60;68.20
25140;DHT22;39015;48.106;-1.682;2023-04-03T13:17:25;14.60;68.30
25140;DHT22;39015;48.106;-1.682;2023-04-03T13:19:53;14.60;68.30
25140;DHT22;39015;48.106;-1.682;2023-04-03T13:22:24;14.70;68.40
25140;DHT22;39015;48.106;-1.682;2023-04-03T13:24:53;14.70;68.40
25140;DHT22;39015;48.106;-1.682;2023-04-03T13:27:20;14.70;68.40
25140;DHT22;39015;48.106;-1.682;2023-04-03T13:29:50;14.70;68.40
25140;DHT22;39015;48.106;-1.682;2023-04-03T13:32:19;14.70;68.30
25140;DHT22;39015;48.106;-1.682;2023-04-03T13:34:46;14.70;68.30
25140;DHT22;39015;48.106;-1.682;2023-04-03T13:37:22;14.70;68.30
25140;DHT22;39015;48.106;-1.682;2023-04-03T13:39:58;14.70;68.30
25140;DHT22;39015;48.106;-1.682;2023-04-03T13:42:26;14.70;68.30
25140;DHT22;39015;48.106;-1.682;2023-04-03T13:47:45;14.70;68.30
25140;DHT22;39015;48.106;-1.682;2023-04-03T13:50:14;14.80;68.30
25140;DHT22;39015;48.106;-1.682;2023-04-03T13:52:42;14.80;68.30
25140;DHT22;39015;48.106;-1.682;2023-04-03T13:55:18;14.80;68.30
25140;DHT22;39015;48.106;-1.682;2023-04-03T13:57:49;14.80;68.30
25140;DHT22;39015;48.106;-1.682;2023-04-03T14:00:20;14.80;68.40
25140;DHT22;39015;48.106;-1.682;2023-04-03T14:02:48;14.80;68.30
25140;DHT22;39015;48.106;-1.682;2023-04-03T14:05:15;14.80;68.30
25140;DHT22;39015;48.106;-1.682;2023-04-03T14:07:46;14.80;68.40
25140;DHT22;39015;48.106;-1.682;2023-04-03T14:10:13;14.80;68.30
25140;DHT22;39015;48.106;-1.682;2023-04-03T14:12:40;14.80;68.40
25140;DHT22;39015;48.106;-1.682;2023-04-03T14:15:12;14.80;68.40
25140;DHT22;39015;48.106;-1.682;2023-04-03T14:17:42;14.80;68.30
25140;DHT22;39015;48.106;-1.682;2023-04-03T14:20:13;14.80;68.40
25140;DHT22;39015;48.106;-1.682;2023-04-03T14:22:40;14.80;68.20
25140;DHT22;39015;48.106;-1.682;2023-04-03T14:25:07;14.80;68.20
25140;DHT22;39015;48.106;-1.682;2023-04-03T14:27:35;14.80;68.20
25140;DHT22;39015;48.106;-1.682;2023-04-03T14:30:03;14.90;68.20
25140;DHT22;39015;48.106;-1.682;2023-04-03T14:32:30;14.90;68.20
25140;DHT22;39015;48.106;-1.682;2023-04-03T14:35:02;14.90;68.20
25140;DHT22;39015;48.106;-1.682;2023-04-03T14:37:31;14.90;68.20
25140;DHT22;39015;48.106;-1.682;2023-04-03T14:39:58;14.90;68.20
25140;DHT22;39015;48.106;-1.682;2023-04-03T14:42:27;14.90;68.30
25140;DHT22;39015;48.106;-1.682;2023-04-03T14:44:54;14.90;68.30
25140;DHT22;39015;48.106;-1.682;2023-04-03T14:47:23;14.90;68.30
25140;DHT22;39015;48.106;-1.682;2023-04-03T14:49:50;14.90;68.30
25140;DHT22;39015;48.106;-1.682;2023-04-03T14:52:19;14.90;68.30
25140;DHT22;39015;48.106;-1.682;2023-04-03T14:54:47;14.90;68.30
25140;DHT22;39015;48.106;-1.682;2023-04-03T14:57:15;14.90;68.30
25140;DHT22;39015;48.106;-1.682;2023-04-03T14:59:42;15.00;68.40
25140;DHT22;39015;48.106;-1.682;2023-04-03T15:02:11;14.90;68.30
25140;DHT22;39015;48.106;-1.682;2023-04-03T15:04:41;15.00;68.30
25140;DHT22;39015;48.106;-1.682;2023-04-03T15:07:08;15.00;68.40
25140;DHT22;39015;48.106;-1.682;2023-04-03T15:09:35;15.00;68.40
25140;DHT22;39015;48.106;-1.682;2023-04-03T15:12:03;15.00;68.40
25140;DHT22;39015;48.106;-1.682;2023-04-03T15:14:30;15.00;68.30
25140;DHT22;39015;48.106;-1.682;2023-04-03T15:16:57;15.00;68.20
25140;DHT22;39015;48.106;-1.682;2023-04-03T15:19:24;15.00;68.30
25140;DHT22;39015;48.106;-1.682;2023-04-03T15:21:50;15.10;68.40
25140;DHT22;39015;48.106;-1.682;2023-04-03T15:24:17;15.10;68.50
25140;DHT22;39015;48.106;-1.682;2023-04-03T15:26:44;15.00;68.40
25140;DHT22;39015;48.106;-1.682;2023-04-03T15:29:13;15.10;68.40
25140;DHT22;39015;48.106;-1.682;2023-04-03T15:31:40;15.10;68.30
25140;DHT22;39015;48.106;-1.682;2023-04-03T15:34:07;15.10;68.30
25140;DHT22;39015;48.106;-1.682;2023-04-03T15:36:34;15.10;68.30
25140;DHT22;39015;48.106;-1.682;2023-04-03T15:39:00;15.10;68.50
25140;DHT22;39015;48.106;-1.682;2023-04-03T15:41:27;15.10;68.20
25140;DHT22;39015;48.106;-1.682;2023-04-03T15:43:54;15.10;68.10
25140;DHT22;39015;48.106;-1.682;2023-04-03T15:46:22;15.10;68.20
25140;DHT22;39015;48.106;-1.682;2023-04-03T15:48:49;15.10;69.00
25140;DHT22;39015;48.106;-1.682;2023-04-03T15:51:16;15.10;68.10
25140;DHT22;39015;48.106;-1.682;2023-04-03T15:53:43;15.10;68.20
25140;DHT22;39015;48.106;-1.682;2023-04-03T15:56:11;15.10;68.20
25140;DHT22;39015;48.106;-1.682;2023-04-03T15:58:38;15.10;68.30
25140;DHT22;39015;48.106;-1.682;2023-04-03T16:01:05;15.10;68.30
25140;DHT22;39015;48.106;-1.682;2023-04-03T16:03:33;15.10;68.40
25140;DHT22;39015;48.106;-1.682;2023-04-03T16:06:00;15.20;69.40
25140;DHT22;39015;48.106;-1.682;2023-04-03T16:08:27;15.20;68.50
25140;DHT22;39015;48.106;-1.682;2023-04-03T16:10:54;15.20;68.50
25140;DHT22;39015;48.106;-1.682;2023-04-03T16:13:21;15.20;68.40
25140;DHT22;39015;48.106;-1.682;2023-04-03T16:15:48;15.20;68.30
25140;DHT22;39015;48.106;-1.682;2023-04-03T16:18:16;15.20;68.30
25140;DHT22;39015;48.106;-1.682;2023-04-03T16:20:47;15.20;68.30
25140;DHT22;39015;48.106;-1.682;2023-04-03T16:23:14;15.20;68.30
25140;DHT22;39015;48.106;-1.682;2023-04-03T16:25:41;15.20;68.30
25140;DHT22;39015;48.106;-1.682;2023-04-03T16:28:11;15.20;68.10
25140;DHT22;39015;48.106;-1.682;2023-04-03T16:30:40;15.20;68.20
25140;DHT22;39015;48.106;-1.682;2023-04-03T16:33:09;15.30;68.20
25140;DHT22;39015;48.106;-1.682;2023-04-03T16:35:36;15.30;68.20
25140;DHT22;39015;48.106;-1.682;2023-04-03T16:38:05;15.30;68.00
25140;DHT22;39015;48.106;-1.682;2023-04-03T16:40:31;15.30;68.00
25140;DHT22;39015;48.106;-1.682;2023-04-03T16:42:59;15.30;68.00
25140;DHT22;39015;48.106;-1.682;2023-04-03T16:45:26;15.30;68.00
25140;DHT22;39015;48.106;-1.682;2023-04-03T16:47:52;15.30;68.00
25140;DHT22;39015;48.106;-1.682;2023-04-03T16:50:19;15.30;68.00
25140;DHT22;39015;48.106;-1.682;2023-04-03T16:52:46;15.30;67.90
25140;DHT22;39015;48.106;-1.682;2023-04-03T16:55:14;15.30;67.90
25140;DHT22;39015;48.106;-1.682;2023-04-03T16:57:41;15.30;68.00
25140;DHT22;39015;48.106;-1.682;2023-04-03T17:00:08;15.30;68.00
25140;DHT22;39015;48.106;-1.682;2023-04-03T17:02:35;15.30;68.20
25140;DHT22;39015;48.106;-1.682;2023-04-03T17:05:02;15.30;68.20
25140;DHT22;39015;48.106;-1.682;2023-04-03T17:07:29;15.30;68.20
25140;DHT22;39015;48.106;-1.682;2023-04-03T17:09:56;15.30;68.20
25140;DHT22;39015;48.106;-1.682;2023-04-03T17:12:24;15.30;68.00
25140;DHT22;39015;48.106;-1.682;2023-04-03T17:14:51;15.30;68.10
25140;DHT22;39015;48.106;-1.682;2023-04-03T17:17:18;15.30;68.20
25140;DHT22;39015;48.106;-1.682;2023-04-03T17:19:46;15.30;68.20
25140;DHT22;39015;48.106;-1.682;2023-04-03T17:22:13;15.30;68.20
25140;DHT22;39015;48.106;-1.682;2023-04-03T17:24:41;15.30;67.90
25140;DHT22;39015;48.106;-1.682;2023-04-03T17:27:08;15.30;68.00
25140;DHT22;39015;48.106;-1.682;2023-04-03T17:29:37;15.30;67.90
25140;DHT22;39015;48.106;-1.682;2023-04-03T17:32:04;15.30;68.00
25140;DHT22;39015;48.106;-1.682;2023-04-03T17:34:30;15.30;68.20
25140;DHT22;39015;48.106;-1.682;2023-04-03T17:36:58;15.30;68.20
25140;DHT22;39015;48.106;-1.682;2023-04-03T17:39:24;15.30;68.20
25140;DHT22;39015;48.106;-1.682;2023-04-03T17:41:51;15.30;68.30
25140;DHT22;39015;48.106;-1.682;2023-04-03T17:44:19;15.40;68.30
25140;DHT22;39015;48.106;-1.682;2023-04-03T17:46:47;15.30;68.20
25140;DHT22;39015;48.106;-1.682;2023-04-03T17:49:14;15.40;68.10
25140;DHT22;39015;48.106;-1.682;2023-04-03T17:51:43;15.40;68.10
25140;DHT22;39015;48.106;-1.682;2023-04-03T17:54:10;15.40;68.20
25140;DHT22;39015;48.106;-1.682;2023-04-03T17:56:36;15.40;68.10
25140;DHT22;39015;48.106;-1.682;2023-04-03T17:59:04;15.50;68.40
25140;DHT22;39015;48.106;-1.682;2023-04-03T18:01:32;15.50;68.20
25140;DHT22;39015;48.106;-1.682;2023-04-03T18:04:02;15.50;68.00
25140;DHT22;39015;48.106;-1.682;2023-04-03T18:06:29;15.50;68.20
25140;DHT22;39015;48.106;-1.682;2023-04-03T18:08:57;15.50;68.10
25140;DHT22;39015;48.106;-1.682;2023-04-03T18:11:26;15.50;68.00
25140;DHT22;39015;48.106;-1.682;2023-04-03T18:13:53;15.50;68.00
25140;DHT22;39015;48.106;-1.682;2023-04-03T18:16:20;15.50;68.10
25140;DHT22;39015;48.106;-1.682;2023-04-03T18:18:47;15.50;68.00
25140;DHT22;39015;48.106;-1.682;2023-04-03T18:21:15;15.50;68.00
25140;DHT22;39015;48.106;-1.682;2023-04-03T18:23:43;15.50;68.00
25140;DHT22;39015;48.106;-1.682;2023-04-03T18:26:13;15.50;68.10
25140;DHT22;39015;48.106;-1.682;2023-04-03T18:28:40;15.50;68.10
25140;DHT22;39015;48.106;-1.682;2023-04-03T18:31:09;15.50;68.20
25140;DHT22;39015;48.106;-1.682;2023-04-03T18:33:37;15.50;68.10
25140;DHT22;39015;48.106;-1.682;2023-04-03T18:36:04;15.50;68.10
25140;DHT22;39015;48.106;-1.682;2023-04-03T18:38:32;15.50;68.20
25140;DHT22;39015;48.106;-1.682;2023-04-03T18:40:59;15.50;68.20
25140;DHT22;39015;48.106;-1.682;2023-04-03T18:43:28;15.50;68.20
25140;DHT22;39015;48.106;-1.682;2023-04-03T18:45:55;15.50;68.20
25140;DHT22;39015;48.106;-1.682;2023-04-03T18:48:21;15.50;68.30
25140;DHT22;39015;48.106;-1.682;2023-04-03T18:50:49;15.50;68.30
25140;DHT22;39015;48.106;-1.682;2023-04-03T18:53:16;15.50;68.20
25140;DHT22;39015;48.106;-1.682;2023-04-03T18:55:44;15.50;68.20
25140;DHT22;39015;48.106;-1.682;2023-04-03T18:58:11;15.50;68.20
25140;DHT22;39015;48.106;-1.682;2023-04-03T19:00:38;15.50;68.10
25140;DHT22;39015;48.106;-1.682;2023-04-03T19:03:05;15.50;68.00
25140;DHT22;39015;48.106;-1.682;2023-04-03T19:05:32;15.50;68.00
25140;DHT22;39015;48.106;-1.682;2023-04-03T19:07:59;15.50;68.20
25140;DHT22;39015;48.106;-1.682;2023-04-03T19:10:26;15.50;68.20
25140;DHT22;39015;48.106;-1.682;2023-04-03T19:12:55;15.50;68.20
25140;DHT22;39015;48.106;-1.682;2023-04-03T19:15:22;15.50;68.20
25140;DHT22;39015;48.106;-1.682;2023-04-03T19:17:49;15.50;68.20
25140;DHT22;39015;48.106;-1.682;2023-04-03T19:20:16;15.50;68.20
25140;DHT22;39015;48.106;-1.682;2023-04-03T19:22:43;15.50;68.10
25140;DHT22;39015;48.106;-1.682;2023-04-03T19:25:10;15.50;68.20
25140;DHT22;39015;48.106;-1.682;2023-04-03T19:27:38;15.50;68.20
25140;DHT22;39015;48.106;-1.682;2023-04-03T19:30:07;15.50;68.10
25140;DHT22;39015;48.106;-1.682;2023-04-03T19:32:34;15.50;68.20
25140;DHT22;39015;48.106;-1.682;2023-04-03T19:35:01;15.50;69.10
25140;DHT22;39015;48.106;-1.682;2023-04-03T19:37:29;15.40;68.20
25140;DHT22;39015;48.106;-1.682;2023-04-03T19:39:56;15.50;68.20
25140;DHT22;39015;48.106;-1.682;2023-04-03T19:42:26;15.50;68.20
25140;DHT22;39015;48.106;-1.682;2023-04-03T19:44:53;15.40;68.20
25140;DHT22;39015;48.106;-1.682;2023-04-03T19:47:22;15.40;68.20
25140;DHT22;39015;48.106;-1.682;2023-04-03T19:49:49;15.40;68.20
25140;DHT22;39015;48.106;-1.682;2023-04-03T19:52:17;15.40;68.20
25140;DHT22;39015;48.106;-1.682;2023-04-03T19:54:44;15.40;68.10
25140;DHT22;39015;48.106;-1.682;2023-04-03T19:57:11;15.40;68.10
25140;DHT22;39015;48.106;-1.682;2023-04-03T19:59:38;15.40;68.10
25140;DHT22;39015;48.106;-1.682;2023-04-03T20:02:05;15.40;68.10
25140;DHT22;39015;48.106;-1.682;2023-04-03T20:04:33;15.40;68.10
25140;DHT22;39015;48.106;-1.682;2023-04-03T20:07:00;15.40;68.10
25140;DHT22;39015;48.106;-1.682;2023-04-03T20:09:27;15.40;68.10
25140;DHT22;39015;48.106;-1.682;2023-04-03T20:11:54;15.40;68.00
25140;DHT22;39015;48.106;-1.682;2023-04-03T20:14:22;15.40;67.90
25140;DHT22;39015;48.106;-1.682;2023-04-03T20:16:49;15.40;67.80
25140;DHT22;39015;48.106;-1.682;2023-04-03T20:19:15;15.40;67.70
25140;DHT22;39015;48.106;-1.682;2023-04-03T20:21:43;15.40;67.70
25140;DHT22;39015;48.106;-1.682;2023-04-03T20:24:10;15.40;67.70
25140;DHT22;39015;48.106;-1.682;2023-04-03T20:26:38;15.40;67.60
25140;DHT22;39015;48.106;-1.682;2023-04-03T20:29:10;15.40;67.60
25140;DHT22;39015;48.106;-1.682;2023-04-03T20:31:39;15.40;67.60
25140;DHT22;39015;48.106;-1.682;2023-04-03T20:34:06;15.40;67.60
25140;DHT22;39015;48.106;-1.682;2023-04-03T20:36:33;15.40;67.70
25140;DHT22;39015;48.106;-1.682;2023-04-03T20:39:02;15.30;67.70
25140;DHT22;39015;48.106;-1.682;2023-04-03T20:41:29;15.30;67.70
25140;DHT22;39015;48.106;-1.682;2023-04-03T20:43:59;15.40;67.70
25140;DHT22;39015;48.106;-1.682;2023-04-03T20:46:26;15.40;67.60
25140;DHT22;39015;48.106;-1.682;2023-04-03T20:48:54;15.40;67.60
25140;DHT22;39015;48.106;-1.682;2023-04-03T20:51:22;15.30;67.50
25140;DHT22;39015;48.106;-1.682;2023-04-03T20:53:49;15.30;67.50
25140;DHT22;39015;48.106;-1.682;2023-04-03T20:56:18;15.30;68.50
25140;DHT22;39015;48.106;-1.682;2023-04-03T20:58:45;15.30;67.50
25140;DHT22;39015;48.106;-1.682;2023-04-03T21:01:13;15.30;67.50
25140;DHT22;39015;48.106;-1.682;2023-04-03T21:03:40;15.30;67.50
25140;DHT22;39015;48.106;-1.682;2023-04-03T21:19:44;15.30;67.30
25140;DHT22;39015;48.106;-1.682;2023-04-03T21:22:11;15.30;67.40
